sensor_id;sensor_type;location;lat;lon;timestamp;pressure;altitude;pressure_sealevel;temperature;humidity
18988;BME280;5494;51.796;10.952;2023-05-09T00:02:17;99493.81;;;9.28;100.00
18988;BME280;5494;51.796;10.952;2023-05-09T00:04:45;99483.84;;;9.17;100.00
18988;BME280;5494;51.796;10.952;2023-05-09T00:07:13;99486.91;;;9.05;100.00
18988;BME280;5494;51.796;10.952;2023-05-09T00:09:41;99493.56;;;9.12;100.00
18988;BME280;5494;51.796;10.952;2023-05-09T00:12:09;99489.59;;;9.02;100.00
18988;BME280;5494;51.796;10.952;2023-05-09T00:14:39;99491.16;;;9.06;100.00
18988;BME280;5494;51.796;10.952;2023-05-09T00:17:08;99484.41;;;9.02;100.00
18988;BME280;5494;51.796;10.952;2023-05-09T00:19:36;99487.66;;;9.07;100.00
18988;BME280;5494;51.796;10.952;2023-05-09T00:22:04;99485.16;;;9.05;100.00
18988;BME280;5494;51.796;10.952;2023-05-09T00:24:32;99485.28;;;9.01;100.00
18988;BME280;5494;51.796;10.952;2023-05-09T00:27:00;99482.66;;;9.02;100.00
18988;BME280;5494;51.796;10.952;2023-05-09T00:29:28;99474.34;;;8.93;100.00
18988;BME280;5494;51.796;10.952;2023-05-09T00:31:57;99479.13;;;8.80;100.00
18988;BME280;5494;51.796;10.952;2023-05-09T00:34:25;99479.97;;;8.81;100.00
18988;BME280;5494;51.796;10.952;2023-05-09T00:36:53;99470.69;;;8.75;100.00
18988;BME280;5494;51.796;10.952;2023-05-09T00:39:21;99470.16;;;8.65;100.00
18988;BME280;5494;51.796;10.952;2023-05-09T00:41:50;99472.88;;;8.62;100.00
18988;BME280;5494;51.796;10.952;2023-05-09T00:44:18;99471.13;;;8.63;100.00
18988;BME280;5494;51.796;10.952;2023-05-09T00:46:46;99464.47;;;8.56;100.00
18988;BME280;5494;51.796;10.952;2023-05-09T00:49:16;99455.78;;;8.57;100.00
18988;BME280;5494;51.796;10.952;2023-05-09T00:51:45;99455.94;;;8.52;100.00
18988;BME280;5494;51.796;10.952;2023-05-09T00:54:14;99446.06;;;9.10;100.00
18988;BME280;5494;51.796;10.952;2023-05-09T00:56:42;99444.44;;;9.53;93.92
18988;BME280;5494;51.796;10.952;2023-05-09T00:59:10;99445.06;;;9.81;89.66
18988;BME280;5494;51.796;10.952;2023-05-09T01:01:38;99440.19;;;9.94;86.99
18988;BME280;5494;51.796;10.952;2023-05-09T01:04:06;99439.25;;;10.16;84.18
18988;BME280;5494;51.796;10.952;2023-05-09T01:06:47;99437.09;;;10.27;82.61
18988;BME280;5494;51.796;10.952;2023-05-09T01:09:28;99428.38;;;10.49;81.01
18988;BME280;5494;51.796;10.952;2023-05-09T01:12:10;99423.97;;;10.51;80.36
18988;BME280;5494;51.796;10.952;2023-05-09T01:14:51;99415.41;;;10.68;78.31
18988;BME280;5494;51.796;10.952;2023-05-09T01:17:30;99418.47;;;10.77;77.65
18988;BME280;5494;51.796;10.952;2023-05-09T01:20:11;99413.25;;;10.77;77.36
18988;BME280;5494;51.796;10.952;2023-05-09T01:22:47;99420.28;;;10.94;76.22
18988;BME280;5494;51.796;10.952;2023-05-09T01:25:48;99418.13;;;11.03;74.61
18988;BME280;5494;51.796;10.952;2023-05-09T01:28:51;99413.38;;;11.13;73.63
18988;BME280;5494;51.796;10.952;2023-05-09T01:31:25;99405.41;;;11.16;73.30
18988;BME280;5494;51.796;10.952;2023-05-09T01:33:58;99394.69;;;11.22;72.64
18988;BME280;5494;51.796;10.952;2023-05-09T01:36:31;99391.19;;;11.23;72.98
18988;BME280;5494;51.796;10.952;2023-05-09T01:39:02;99386.84;;;11.24;72.84
18988;BME280;5494;51.796;10.952;2023-05-09T01:41:35;99387.63;;;11.26;72.06
18988;BME280;5494;51.796;10.952;2023-05-09T01:44:08;99378.91;;;11.27;72.08
18988;BME280;5494;51.796;10.952;2023-05-09T01:46:39;99393.56;;;11.28;72.08
18988;BME280;5494;51.796;10.952;2023-05-09T01:49:11;99382.47;;;11.24;71.91
18988;BME280;5494;51.796;10.952;2023-05-09T01:51:41;99384.00;;;11.28;72.08
18988;BME280;5494;51.796;10.952;2023-05-09T01:54:11;99391.06;;;11.26;71.65
18988;BME280;5494;51.796;10.952;2023-05-09T01:56:42;99386.41;;;11.33;71.28
18988;BME280;5494;51.796;10.952;2023-05-09T01:59:13;99388.00;;;11.35;70.93
18988;BME280;5494;51.796;10.952;2023-05-09T02:01:45;99391.31;;;11.39;70.67
18988;BME280;5494;51.796;10.952;2023-05-09T02:04:16;99390.59;;;11.35;71.02
18988;BME280;5494;51.796;10.952;2023-05-09T02:06:48;99392.06;;;11.41;70.69
18988;BME280;5494;51.796;10.952;2023-05-09T02:09:18;99395.13;;;11.32;71.47
18988;BME280;5494;51.796;10.952;2023-05-09T02:11:46;99388.91;;;11.34;71.23
18988;BME280;5494;51.796;10.952;2023-05-09T02:14:15;99383.94;;;11.30;71.87
18988;BME280;5494;51.796;10.952;2023-05-09T02:16:44;99382.25;;;11.29;72.54
18988;BME280;5494;51.796;10.952;2023-05-09T02:19:13;99387.94;;;10.62;78.79
18988;BME280;5494;51.796;10.952;2023-05-09T02:21:41;99389.22;;;9.91;85.31
18988;BME280;5494;51.796;10.952;2023-05-09T02:24:10;99379.88;;;9.45;91.05
18988;BME280;5494;51.796;10.952;2023-05-09T02:26:39;99391.56;;;8.88;97.45
18988;BME280;5494;51.796;10.952;2023-05-09T02:29:09;99396.25;;;8.55;100.00
18988;BME280;5494;51.796;10.952;2023-05-09T02:31:42;99391.88;;;8.06;100.00
18988;BME280;5494;51.796;10.952;2023-05-09T02:34:14;99397.16;;;8.03;100.00
18988;BME280;5494;51.796;10.952;2023-05-09T02:36:43;99403.81;;;7.85;100.00
18988;BME280;5494;51.796;10.952;2023-05-09T02:39:11;99402.19;;;7.81;100.00
18988;BME280;5494;51.796;10.952;2023-05-09T02:41:39;99400.97;;;7.67;100.00
18988;BME280;5494;51.796;10.952;2023-05-09T02:44:14;99388.47;;;7.53;100.00
18988;BME280;5494;51.796;10.952;2023-05-09T02:46:42;99396.59;;;7.41;100.00
18988;BME280;5494;51.796;10.952;2023-05-09T02:49:10;99393.16;;;7.40;100.00
18988;BME280;5494;51.796;10.952;2023-05-09T02:51:58;99387.97;;;7.14;100.00
18988;BME280;5494;51.796;10.952;2023-05-09T02:54:27;99391.72;;;7.04;100.00
18988;BME280;5494;51.796;10.952;2023-05-09T02:56:55;99392.72;;;6.98;100.00
18988;BME280;5494;51.796;10.952;2023-05-09T02:59:24;99390.44;;;6.89;100.00
18988;BME280;5494;51.796;10.952;2023-05-09T03:01:52;99393.72;;;6.94;100.00
18988;BME280;5494;51.796;10.952;2023-05-09T03:04:21;99399.06;;;6.88;100.00
18988;BME280;5494;51.796;10.952;2023-05-09T03:06:49;99389.94;;;6.77;100.00
18988;BME280;5494;51.796;10.952;2023-05-09T03:09:18;99394.91;;;6.84;100.00
18988;BME280;5494;51.796;10.952;2023-05-09T03:11:46;99392.31;;;6.84;100.00
18988;BME280;5494;51.796;10.952;2023-05-09T03:14:14;99385.44;;;6.83;100.00
18988;BME280;5494;51.796;10.952;2023-05-09T03:16:42;99386.41;;;6.79;100.00
18988;BME280;5494;51.796;10.952;2023-05-09T03:19:19;99383.50;;;6.91;100.00
18988;BME280;5494;51.796;10.952;2023-05-09T03:21:47;99380.22;;;6.85;100.00
18988;BME280;5494;51.796;10.952;2023-05-09T03:24:17;99380.91;;;6.91;100.00
18988;BME280;5494;51.796;10.952;2023-05-09T03:26:45;99373.09;;;6.93;100.00
18988;BME280;5494;51.796;10.952;2023-05-09T03:29:13;99372.13;;;6.97;100.00
18988;BME280;5494;51.796;10.952;2023-05-09T03:31:41;99369.75;;;6.89;100.00
18988;BME280;5494;51.796;10.952;2023-05-09T03:34:09;99372.53;;;6.83;100.00
18988;BME280;5494;51.796;10.952;2023-05-09T03:36:42;99376.19;;;6.76;100.00
18988;BME280;5494;51.796;10.952;2023-05-09T03:39:12;99369.34;;;6.73;100.00
18988;BME280;5494;51.796;10.952;2023-05-09T03:41:47;99368.53;;;6.71;100.00
18988;BME280;5494;51.796;10.952;2023-05-09T03:44:16;99369.13;;;6.81;100.00
18988;BME280;5494;51.796;10.952;2023-05-09T03:46:44;99377.06;;;6.75;100.00
18988;BME280;5494;51.796;10.952;2023-05-09T03:49:12;99376.69;;;6.87;100.00
18988;BME280;5494;51.796;10.952;2023-05-09T03:51:41;99365.22;;;6.97;100.00
18988;BME280;5494;51.796;10.952;2023-05-09T03:54:13;99367.16;;;7.19;100.00
18988;BME280;5494;51.796;10.952;2023-05-09T03:56:41;99366.97;;;7.25;100.00
18988;BME280;5494;51.796;10.952;2023-05-09T03:59:10;99361.47;;;7.34;100.00
18988;BME280;5494;51.796;10.952;2023-05-09T04:01:38;99362.00;;;7.45;100.00
18988;BME280;5494;51.796;10.952;2023-05-09T04:04:07;99362.75;;;7.48;100.00
18988;BME280;5494;51.796;10.952;2023-05-09T04:06:35;99357.97;;;7.63;100.00
18988;BME280;5494;51.796;10.952;2023-05-09T04:09:09;99368.28;;;7.64;100.00
18988;BME280;5494;51.796;10.952;2023-05-09T04:11:40;99366.69;;;7.60;100.00
18988;BME280;5494;51.796;10.952;2023-05-09T04:14:12;99361.59;;;7.57;100.00
18988;BME280;5494;51.796;10.952;2023-05-09T04:16:39;99358.53;;;7.72;100.00
18988;BME280;5494;51.796;10.952;2023-05-09T04:19:09;99362.16;;;7.67;100.00
18988;BME280;5494;51.796;10.952;2023-05-09T04:21:40;99360.69;;;7.84;100.00
18988;BME280;5494;51.796;10.952;2023-05-09T04:24:08;99359.22;;;8.02;100.00
18988;BME280;5494;51.796;10.952;2023-05-09T04:26:41;99356.44;;;8.08;100.00
18988;BME280;5494;51.796;10.952;2023-05-09T04:29:13;99363.06;;;8.42;100.00
18988;BME280;5494;51.796;10.952;2023-05-09T04:31:46;99347.91;;;8.54;100.00
18988;BME280;5494;51.796;10.952;2023-05-09T04:34:15;99359.50;;;8.67;100.00
18988;BME280;5494;51.796;10.952;2023-05-09T04:36:43;99350.03;;;8.90;100.00
18988;BME280;5494;51.796;10.952;2023-05-09T04:39:11;99348.25;;;9.35;100.00
18988;BME280;5494;51.796;10.952;2023-05-09T04:41:48;99338.66;;;9.79;100.00
18988;BME280;5494;51.796;10.952;2023-05-09T04:44:17;99325.72;;;9.78;100.00
18988;BME280;5494;51.796;10.952;2023-05-09T04:46:45;99338.44;;;10.45;96.45
18988;BME280;5494;51.796;10.952;2023-05-09T04:49:13;99341.22;;;10.21;95.38
18988;BME280;5494;51.796;10.952;2023-05-09T04:51:47;99336.53;;;10.09;94.98
18988;BME280;5494;51.796;10.952;2023-05-09T04:54:15;99334.34;;;10.20;94.73
18988;BME280;5494;51.796;10.952;2023-05-09T04:56:44;99331.38;;;10.67;92.76
18988;BME280;5494;51.796;10.952;2023-05-09T04:59:15;99327.75;;;11.26;88.28
18988;BME280;5494;51.796;10.952;2023-05-09T05:01:46;99326.00;;;11.26;84.40
18988;BME280;5494;51.796;10.952;2023-05-09T05:04:14;99329.34;;;12.16;82.38
18988;BME280;5494;51.796;10.952;2023-05-09T05:06:42;99326.94;;;12.61;76.04
18988;BME280;5494;51.796;10.952;2023-05-09T05:09:10;99324.59;;;13.35;72.72
18988;BME280;5494;51.796;10.952;2023-05-09T05:11:38;99320.94;;;14.28;66.01
18988;BME280;5494;51.796;10.952;2023-05-09T05:14:19;99320.13;;;15.11;59.90
18988;BME280;5494;51.796;10.952;2023-05-09T05:16:48;99313.34;;;15.62;57.52
18988;BME280;5494;51.796;10.952;2023-05-09T05:19:17;99316.84;;;15.88;55.93
18988;BME280;5494;51.796;10.952;2023-05-09T05:21:45;99318.03;;;15.57;56.90
18988;BME280;5494;51.796;10.952;2023-05-09T05:24:13;99315.53;;;15.55;56.75
18988;BME280;5494;51.796;10.952;2023-05-09T05:26:41;99316.69;;;15.37;55.60
18988;BME280;5494;51.796;10.952;2023-05-09T05:29:11;99303.28;;;14.74;57.20
18988;BME280;5494;51.796;10.952;2023-05-09T05:31:39;99300.34;;;14.51;58.44
18988;BME280;5494;51.796;10.952;2023-05-09T05:34:09;99298.88;;;14.17;60.48
18988;BME280;5494;51.796;10.952;2023-05-09T05:36:37;99306.75;;;13.73;62.51
18988;BME280;5494;51.796;10.952;2023-05-09T05:39:05;99300.44;;;13.92;64.05
18988;BME280;5494;51.796;10.952;2023-05-09T05:41:34;99303.34;;;14.01;63.73
18988;BME280;5494;51.796;10.952;2023-05-09T05:44:04;99306.09;;;14.71;62.43
18988;BME280;5494;51.796;10.952;2023-05-09T05:46:33;99301.00;;;15.23;60.08
18988;BME280;5494;51.796;10.952;2023-05-09T05:49:02;99304.50;;;15.36;55.57
18988;BME280;5494;51.796;10.952;2023-05-09T05:51:33;99300.88;;;15.65;55.33
18988;BME280;5494;51.796;10.952;2023-05-09T05:54:03;99299.28;;;15.36;56.36
18988;BME280;5494;51.796;10.952;2023-05-09T05:56:32;99292.91;;;15.40;56.45
18988;BME280;5494;51.796;10.952;2023-05-09T05:59:01;99289.47;;;15.52;56.31
18988;BME280;5494;51.796;10.952;2023-05-09T06:01:28;99284.88;;;15.83;55.63
18988;BME280;5494;51.796;10.952;2023-05-09T06:03:57;99290.59;;;15.62;55.53
18988;BME280;5494;51.796;10.952;2023-05-09T06:06:29;99278.28;;;15.90;53.73
18988;BME280;5494;51.796;10.952;2023-05-09T06:08:59;99284.13;;;16.06;53.89
18988;BME280;5494;51.796;10.952;2023-05-09T06:11:27;99277.41;;;16.27;53.58
18988;BME280;5494;51.796;10.952;2023-05-09T06:13:55;99272.50;;;17.21;50.20
18988;BME280;5494;51.796;10.952;2023-05-09T06:16:23;99267.44;;;17.18;49.22
18988;BME280;5494;51.796;10.952;2023-05-09T06:18:51;99274.00;;;17.12;49.09
18988;BME280;5494;51.796;10.952;2023-05-09T06:21:22;99257.50;;;17.10;49.39
18988;BME280;5494;51.796;10.952;2023-05-09T06:23:50;99275.53;;;16.91;49.89
18988;BME280;5494;51.796;10.952;2023-05-09T06:26:39;99257.91;;;16.31;52.33
18988;BME280;5494;51.796;10.952;2023-05-09T06:29:07;99263.25;;;15.92;53.06
18988;BME280;5494;51.796;10.952;2023-05-09T06:31:35;99255.41;;;16.17;54.01
18988;BME280;5494;51.796;10.952;2023-05-09T06:34:05;99250.03;;;16.06;55.72
18988;BME280;5494;51.796;10.952;2023-05-09T06:36:34;99254.53;;;16.29;55.32
18988;BME280;5494;51.796;10.952;2023-05-09T06:39:02;99248.50;;;15.12;60.12
18988;BME280;5494;51.796;10.952;2023-05-09T06:41:32;99246.16;;;15.73;58.16
18988;BME280;5494;51.796;10.952;2023-05-09T06:44:02;99250.13;;;16.04;60.37
18988;BME280;5494;51.796;10.952;2023-05-09T06:46:30;99247.38;;;16.93;54.05
18988;BME280;5494;51.796;10.952;2023-05-09T06:48:58;99241.50;;;16.66;53.59
18988;BME280;5494;51.796;10.952;2023-05-09T06:51:27;99249.72;;;15.72;56.72
18988;BME280;5494;51.796;10.952;2023-05-09T06:53:55;99238.56;;;15.56;58.50
18988;BME280;5494;51.796;10.952;2023-05-09T06:56:23;99237.56;;;15.97;58.09
18988;BME280;5494;51.796;10.952;2023-05-09T06:58:52;99231.38;;;16.60;53.88
18988;BME280;5494;51.796;10.952;2023-05-09T07:01:22;99232.88;;;16.87;53.60
18988;BME280;5494;51.796;10.952;2023-05-09T07:03:50;99225.13;;;17.10;53.07
18988;BME280;5494;51.796;10.952;2023-05-09T07:06:18;99228.81;;;16.83;54.38
18988;BME280;5494;51.796;10.952;2023-05-09T07:08:46;99220.34;;;16.80;55.02
18988;BME280;5494;51.796;10.952;2023-05-09T07:11:14;99227.50;;;16.16;54.86
18988;BME280;5494;51.796;10.952;2023-05-09T07:13:42;99219.59;;;17.25;53.15
18988;BME280;5494;51.796;10.952;2023-05-09T07:16:10;99210.66;;;17.04;53.84
18988;BME280;5494;51.796;10.952;2023-05-09T07:18:39;99208.59;;;16.97;54.23
18988;BME280;5494;51.796;10.952;2023-05-09T07:21:07;99204.97;;;17.56;51.58
18988;BME280;5494;51.796;10.952;2023-05-09T07:23:35;99207.25;;;18.29;49.90
18988;BME280;5494;51.796;10.952;2023-05-09T07:26:03;99205.88;;;18.79;47.66
18988;BME280;5494;51.796;10.952;2023-05-09T07:28:31;99205.19;;;18.44;48.92
18988;BME280;5494;51.796;10.952;2023-05-09T07:30:59;99193.59;;;18.35;48.32
18988;BME280;5494;51.796;10.952;2023-05-09T07:33:27;99202.34;;;18.58;50.98
18988;BME280;5494;51.796;10.952;2023-05-09T07:35:59;99188.09;;;19.45;48.30
18988;BME280;5494;51.796;10.952;2023-05-09T07:38:29;99193.69;;;19.63;45.97
18988;BME280;5494;51.796;10.952;2023-05-09T07:40:57;99186.44;;;20.16;45.35
18988;BME280;5494;51.796;10.952;2023-05-09T07:43:25;99187.16;;;20.68;44.30
18988;BME280;5494;51.796;10.952;2023-05-09T07:45:53;99185.19;;;20.20;45.26
18988;BME280;5494;51.796;10.952;2023-05-09T07:48:21;99176.00;;;20.55;44.72
18988;BME280;5494;51.796;10.952;2023-05-09T07:50:49;99170.63;;;20.75;44.63
18988;BME280;5494;51.796;10.952;2023-05-09T07:53:19;99179.91;;;20.11;44.11
18988;BME280;5494;51.796;10.952;2023-05-09T07:55:47;99170.72;;;20.05;44.43
18988;BME280;5494;51.796;10.952;2023-05-09T07:58:16;99170.09;;;20.72;42.65
18988;BME280;5494;51.796;10.952;2023-05-09T08:00:44;99166.94;;;20.38;42.61
18988;BME280;5494;51.796;10.952;2023-05-09T08:03:12;99153.66;;;20.19;43.46
18988;BME280;5494;51.796;10.952;2023-05-09T08:05:40;99146.94;;;20.05;43.42
18988;BME280;5494;51.796;10.952;2023-05-09T08:08:08;99139.63;;;20.97;43.30
18988;BME280;5494;51.796;10.952;2023-05-09T08:10:37;99148.06;;;20.42;42.08
18988;BME280;5494;51.796;10.952;2023-05-09T08:13:05;99136.53;;;20.43;42.67
18988;BME280;5494;51.796;10.952;2023-05-09T08:15:33;99136.56;;;19.83;43.75
18988;BME280;5494;51.796;10.952;2023-05-09T08:18:02;99126.56;;;19.86;43.42
18988;BME280;5494;51.796;10.952;2023-05-09T08:20:29;99125.97;;;20.82;41.38
18988;BME280;5494;51.796;10.952;2023-05-09T08:23:02;99124.19;;;21.02;42.31
18988;BME280;5494;51.796;10.952;2023-05-09T08:25:31;99117.91;;;21.78;39.97
18988;BME280;5494;51.796;10.952;2023-05-09T08:28:00;99116.22;;;21.96;39.47
18988;BME280;5494;51.796;10.952;2023-05-09T08:30:28;99107.78;;;22.11;38.05
18988;BME280;5494;51.796;10.952;2023-05-09T08:32:56;99106.88;;;22.65;37.72
18988;BME280;5494;51.796;10.952;2023-05-09T08:35:24;99104.72;;;22.78;37.65
18988;BME280;5494;51.796;10.952;2023-05-09T08:37:52;99104.16;;;22.12;39.58
18988;BME280;5494;51.796;10.952;2023-05-09T08:40:21;99097.25;;;22.46;38.92
18988;BME280;5494;51.796;10.952;2023-05-09T08:42:49;99095.19;;;21.85;39.82
18988;BME280;5494;51.796;10.952;2023-05-09T08:45:25;99106.63;;;21.10;41.42
18988;BME280;5494;51.796;10.952;2023-05-09T08:47:56;99097.59;;;21.32;42.10
18988;BME280;5494;51.796;10.952;2023-05-09T08:50:25;99097.13;;;21.46;41.86
18988;BME280;5494;51.796;10.952;2023-05-09T08:52:53;99087.72;;;21.34;41.28
18988;BME280;5494;51.796;10.952;2023-05-09T08:55:22;99093.59;;;20.80;42.35
18988;BME280;5494;51.796;10.952;2023-05-09T08:57:51;99080.50;;;20.50;43.92
18988;BME280;5494;51.796;10.952;2023-05-09T09:00:20;99067.72;;;20.64;45.04
18988;BME280;5494;51.796;10.952;2023-05-09T09:02:50;99078.63;;;20.12;45.40
18988;BME280;5494;51.796;10.952;2023-05-09T09:05:20;99069.59;;;20.24;45.00
18988;BME280;5494;51.796;10.952;2023-05-09T09:08:10;99070.22;;;20.47;46.96
18988;BME280;5494;51.796;10.952;2023-05-09T09:10:40;99058.50;;;21.26;43.02
18988;BME280;5494;51.796;10.952;2023-05-09T09:13:10;99061.00;;;21.28;41.73
18988;BME280;5494;51.796;10.952;2023-05-09T09:15:44;99050.63;;;20.59;43.71
18988;BME280;5494;51.796;10.952;2023-05-09T09:18:20;99069.88;;;20.11;45.70
18988;BME280;5494;51.796;10.952;2023-05-09T09:20:53;99051.84;;;20.83;44.01
18988;BME280;5494;51.796;10.952;2023-05-09T09:23:25;99048.22;;;21.60;43.94
18988;BME280;5494;51.796;10.952;2023-05-09T09:25:58;99053.34;;;21.71;43.16
18988;BME280;5494;51.796;10.952;2023-05-09T09:28:26;99043.63;;;21.62;44.93
18988;BME280;5494;51.796;10.952;2023-05-09T09:30:55;99045.72;;;20.83;44.07
18988;BME280;5494;51.796;10.952;2023-05-09T09:33:26;99051.44;;;20.40;45.85
18988;BME280;5494;51.796;10.952;2023-05-09T09:35:56;99036.78;;;21.13;44.49
18988;BME280;5494;51.796;10.952;2023-05-09T09:38:25;99038.94;;;20.61;47.13
18988;BME280;5494;51.796;10.952;2023-05-09T09:40:54;99046.84;;;20.90;45.44
18988;BME280;5494;51.796;10.952;2023-05-09T09:43:30;99034.97;;;21.13;45.83
18988;BME280;5494;51.796;10.952;2023-05-09T09:46:02;99048.47;;;21.30;44.68
18988;BME280;5494;51.796;10.952;2023-05-09T09:48:33;99031.94;;;21.08;44.07
18988;BME280;5494;51.796;10.952;2023-05-09T09:51:07;99032.94;;;20.88;47.85
18988;BME280;5494;51.796;10.952;2023-05-09T09:53:38;99022.25;;;20.51;47.99
18988;BME280;5494;51.796;10.952;2023-05-09T09:56:07;99024.53;;;21.12;47.07
18988;BME280;5494;51.796;10.952;2023-05-09T09:58:35;99033.50;;;20.63;48.58
18988;BME280;5494;51.796;10.952;2023-05-09T10:01:07;99021.47;;;21.16;45.56
18988;BME280;5494;51.796;10.952;2023-05-09T10:03:42;99013.25;;;20.54;46.52
18988;BME280;5494;51.796;10.952;2023-05-09T10:06:12;99019.22;;;21.31;45.06
18988;BME280;5494;51.796;10.952;2023-05-09T10:08:42;99018.00;;;21.26;45.49
18988;BME280;5494;51.796;10.952;2023-05-09T10:11:10;99031.59;;;20.74;47.01
18988;BME280;5494;51.796;10.952;2023-05-09T10:13:38;99024.94;;;19.92;49.48
18988;BME280;5494;51.796;10.952;2023-05-09T10:16:08;99002.69;;;20.54;49.10
18988;BME280;5494;51.796;10.952;2023-05-09T10:18:38;99002.22;;;20.29;48.43
18988;BME280;5494;51.796;10.952;2023-05-09T10:21:13;98999.31;;;20.71;48.27
18988;BME280;5494;51.796;10.952;2023-05-09T10:23:47;98992.00;;;21.21;46.65
18988;BME280;5494;51.796;10.952;2023-05-09T10:26:22;98991.34;;;21.37;47.78
18988;BME280;5494;51.796;10.952;2023-05-09T10:28:54;98986.84;;;21.19;46.85
18988;BME280;5494;51.796;10.952;2023-05-09T10:31:27;98985.88;;;21.48;46.52
18988;BME280;5494;51.796;10.952;2023-05-09T10:33:59;98975.03;;;21.04;47.20
18988;BME280;5494;51.796;10.952;2023-05-09T10:36:28;98973.00;;;20.79;47.97
18988;BME280;5494;51.796;10.952;2023-05-09T10:38:57;98967.34;;;20.64;44.82
18988;BME280;5494;51.796;10.952;2023-05-09T10:41:25;98968.31;;;20.34;49.29
18988;BME280;5494;51.796;10.952;2023-05-09T10:43:55;98954.16;;;20.45;48.79
18988;BME280;5494;51.796;10.952;2023-05-09T10:46:25;98952.66;;;20.89;48.57
18988;BME280;5494;51.796;10.952;2023-05-09T10:48:54;98947.56;;;20.68;47.97
18988;BME280;5494;51.796;10.952;2023-05-09T10:51:23;98936.00;;;20.79;41.76
18988;BME280;5494;51.796;10.952;2023-05-09T10:53:51;98951.47;;;20.74;42.61
18988;BME280;5494;51.796;10.952;2023-05-09T10:56:23;98937.00;;;20.68;40.91
18988;BME280;5494;51.796;10.952;2023-05-09T10:58:52;98931.44;;;20.62;41.47
18988;BME280;5494;51.796;10.952;2023-05-09T11:01:33;98936.00;;;20.79;45.17
18988;BME280;5494;51.796;10.952;2023-05-09T11:04:09;98917.44;;;20.52;47.41
18988;BME280;5494;51.796;10.952;2023-05-09T11:06:45;98922.03;;;20.59;47.06
18988;BME280;5494;51.796;10.952;2023-05-09T11:09:25;98913.78;;;20.72;42.43
18988;BME280;5494;51.796;10.952;2023-05-09T11:11:56;98918.25;;;20.62;42.23
18988;BME280;5494;51.796;10.952;2023-05-09T11:14:32;98912.69;;;20.74;41.67
18988;BME280;5494;51.796;10.952;2023-05-09T11:17:04;98919.59;;;20.85;42.91
18988;BME280;5494;51.796;10.952;2023-05-09T11:19:55;98903.72;;;20.85;43.00
18988;BME280;5494;51.796;10.952;2023-05-09T11:22:26;98895.78;;;20.95;42.45
18988;BME280;5494;51.796;10.952;2023-05-09T11:25:06;98901.16;;;20.66;48.46
18988;BME280;5494;51.796;10.952;2023-05-09T11:27:41;98899.38;;;20.47;45.10
18988;BME280;5494;51.796;10.952;2023-05-09T11:30:12;98901.72;;;20.50;43.17
18988;BME280;5494;51.796;10.952;2023-05-09T11:32:45;98895.31;;;20.62;45.08
18988;BME280;5494;51.796;10.952;2023-05-09T11:35:15;98894.19;;;20.65;50.17
18988;BME280;5494;51.796;10.952;2023-05-09T11:37:47;98894.09;;;20.47;46.70
18988;BME280;5494;51.796;10.952;2023-05-09T11:40:17;98888.78;;;20.57;45.32
18988;BME280;5494;51.796;10.952;2023-05-09T11:42:48;98896.06;;;20.82;45.05
18988;BME280;5494;51.796;10.952;2023-05-09T11:45:16;98872.22;;;20.74;43.79
18988;BME280;5494;51.796;10.952;2023-05-09T11:47:47;98870.22;;;20.86;43.19
18988;BME280;5494;51.796;10.952;2023-05-09T11:50:18;98860.25;;;20.70;47.56
18988;BME280;5494;51.796;10.952;2023-05-09T11:52:47;98853.22;;;20.41;50.06
18988;BME280;5494;51.796;10.952;2023-05-09T11:55:18;98850.47;;;20.43;49.37
18988;BME280;5494;51.796;10.952;2023-05-09T11:57:49;98848.19;;;20.67;44.26
18988;BME280;5494;51.796;10.952;2023-05-09T12:00:20;98839.91;;;20.80;43.14
18988;BME280;5494;51.796;10.952;2023-05-09T12:02:51;98841.13;;;20.86;42.94
18988;BME280;5494;51.796;10.952;2023-05-09T12:05:21;98847.50;;;20.56;47.75
18988;BME280;5494;51.796;10.952;2023-05-09T12:07:49;98839.78;;;20.35;48.40
18988;BME280;5494;51.796;10.952;2023-05-09T12:10:21;98815.31;;;20.23;51.22
18988;BME280;5494;51.796;10.952;2023-05-09T12:12:50;98828.91;;;20.28;49.46
18988;BME280;5494;51.796;10.952;2023-05-09T12:15:21;98830.63;;;20.00;51.42
18988;BME280;5494;51.796;10.952;2023-05-09T12:18:03;98816.19;;;19.95;51.08
18988;BME280;5494;51.796;10.952;2023-05-09T12:20:43;98803.09;;;20.13;50.77
18988;BME280;5494;51.796;10.952;2023-05-09T12:23:13;98811.75;;;20.05;51.65
18988;BME280;5494;51.796;10.952;2023-05-09T12:25:47;98807.94;;;20.27;52.99
18988;BME280;5494;51.796;10.952;2023-05-09T12:28:17;98811.88;;;20.03;50.80
18988;BME280;5494;51.796;10.952;2023-05-09T12:30:45;98811.75;;;19.86;51.15
18988;BME280;5494;51.796;10.952;2023-05-09T12:33:15;98800.88;;;20.18;49.04
18988;BME280;5494;51.796;10.952;2023-05-09T12:35:45;98825.16;;;20.31;48.68
18988;BME280;5494;51.796;10.952;2023-05-09T12:38:19;98815.38;;;19.46;51.62
18988;BME280;5494;51.796;10.952;2023-05-09T12:40:48;98794.56;;;19.82;52.25
18988;BME280;5494;51.796;10.952;2023-05-09T12:43:16;98810.53;;;19.71;50.26
18988;BME280;5494;51.796;10.952;2023-05-09T12:45:44;98804.84;;;19.56;53.26
18988;BME280;5494;51.796;10.952;2023-05-09T12:48:14;98795.91;;;19.86;53.59
18988;BME280;5494;51.796;10.952;2023-05-09T12:50:46;98797.03;;;19.93;50.06
18988;BME280;5494;51.796;10.952;2023-05-09T12:53:23;98789.09;;;20.12;49.39
18988;BME280;5494;51.796;10.952;2023-05-09T12:55:54;98785.97;;;20.46;49.85
18988;BME280;5494;51.796;10.952;2023-05-09T12:58:28;98788.66;;;20.07;47.82
18988;BME280;5494;51.796;10.952;2023-05-09T13:00:56;98788.25;;;20.12;48.84
18988;BME280;5494;51.796;10.952;2023-05-09T13:03:27;98771.28;;;20.14;48.34
18988;BME280;5494;51.796;10.952;2023-05-09T13:05:58;98779.88;;;20.26;47.78
18988;BME280;5494;51.796;10.952;2023-05-09T13:08:28;98773.41;;;20.01;48.58
18988;BME280;5494;51.796;10.952;2023-05-09T13:10:56;98780.19;;;20.13;47.48
18988;BME280;5494;51.796;10.952;2023-05-09T13:13:41;98770.63;;;20.02;48.50
18988;BME280;5494;51.796;10.952;2023-05-09T13:16:09;98778.44;;;19.65;49.56
18988;BME280;5494;51.796;10.952;2023-05-09T13:18:43;98758.41;;;19.92;50.56